Time;durP1;ratioP1;P1;durP2;ratioP2;P2;SDS_P1;SDS_P2;PMS_P1;PMS_P2;Temp;Humidity;BMP_temperature;BMP_pressure;BME280_temperature;BME280_humidity;BME280_pressure;Samples;Min_cycle;Max_cycle;Signal;HPM_P1;HPM_P2
2023/07/08 00:00:16;;;;;;;10.57;8.00;;;24.50;57.10;;;;;;5035099;28;20228;-71
2023/07/08 00:02:46;;;;;;;10.13;7.43;;;24.40;57.20;;;;;;5057195;28;20224;-70
2023/07/08 00:05:14;;;;;;;11.63;7.33;;;24.40;57.20;;;;;;5041153;28;20462;-71
2023/07/08 00:07:41;;;;;;;10.40;7.47;;;24.40;57.30;;;;;;5042005;28;20235;-69
2023/07/08 00:10:13;;;;;;;8.77;6.97;;;24.30;57.40;;;;;;5039257;28;20952;-70
2023/07/08 00:12:38;;;;;;;8.20;6.53;;;24.30;57.50;;;;;;5040979;28;20478;-71
2023/07/08 00:15:05;;;;;;;8.57;6.47;;;24.30;57.70;;;;;;5030665;28;20461;-71
2023/07/08 00:17:30;;;;;;;11.30;7.63;;;24.10;57.90;;;;;;5032348;28;20212;-71
2023/07/08 00:19:56;;;;;;;11.10;7.40;;;24.00;58.50;;;;;;5055535;28;20490;-70
2023/07/08 00:22:24;;;;;;;7.60;6.37;;;24.00;57.90;;;;;;5037892;28;20236;-70
2023/07/08 00:24:50;;;;;;;9.13;6.80;;;24.10;58.00;;;;;;5037800;28;20223;-70
2023/07/08 00:27:16;;;;;;;16.07;7.30;;;24.00;58.20;;;;;;5040606;28;20454;-71
2023/07/08 00:29:43;;;;;;;10.60;7.70;;;24.00;58.30;;;;;;5041093;28;20511;-71
2023/07/08 00:32:15;;;;;;;10.80;6.80;;;24.00;58.40;;;;;;5044321;28;20204;-71
2023/07/08 00:34:41;;;;;;;11.63;7.50;;;23.90;58.50;;;;;;5058113;28;20463;-69
2023/07/08 00:37:13;;;;;;;13.30;8.33;;;24.00;58.50;;;;;;5030506;28;20953;-71
2023/07/08 00:39:40;;;;;;;8.27;6.80;;;24.00;58.40;;;;;;5039099;28;20482;-71
2023/07/08 00:42:23;;;;;;;10.20;7.80;;;23.90;58.40;;;;;;5021336;28;20451;-69
2023/07/08 00:44:48;;;;;;;10.97;7.33;;;23.90;58.50;;;;;;5035431;28;20507;-71
2023/07/08 00:47:15;;;;;;;9.67;6.80;;;23.90;58.60;;;;;;5041350;28;20984;-71
2023/07/08 00:50:06;;;;;;;9.67;6.83;;;23.90;58.60;;;;;;5040261;28;20219;-70
2023/07/08 00:52:31;;;;;;;9.10;7.07;;;23.90;58.60;;;;;;5039386;28;20583;-70
2023/07/08 00:55:07;;;;;;;10.00;6.53;;;24.00;58.60;;;;;;5046161;28;20613;-71
2023/07/08 00:57:38;;;;;;;10.53;6.83;;;24.00;58.70;;;;;;5061659;28;20208;-71
2023/07/08 01:00:08;;;;;;;11.73;7.33;;;24.00;58.70;;;;;;5028863;28;20477;-70
2023/07/08 01:02:41;;;;;;;10.73;6.90;;;23.90;58.90;;;;;;5034842;28;20450;-72
2023/07/08 01:05:17;;;;;;;9.07;7.17;;;23.80;59.00;;;;;;5043160;28;21011;-71
2023/07/08 01:07:48;;;;;;;17.20;6.77;;;23.80;58.70;;;;;;5033866;28;20455;-70
2023/07/08 01:10:18;;;;;;;8.57;7.30;;;23.90;59.00;;;;;;5037763;28;20524;-71
2023/07/08 01:12:48;;;;;;;9.67;7.20;;;23.90;59.10;;;;;;5039395;28;20483;-71
2023/07/08 01:15:14;;;;;;;8.30;6.80;;;23.80;59.20;;;;;;5044905;28;20504;-70
2023/07/08 01:17:42;;;;;;;12.43;7.97;;;23.80;59.20;;;;;;5042275;28;20833;-69
2023/07/08 01:20:14;;;;;;;7.70;6.50;;;23.80;59.10;;;;;;5030555;28;20450;-71
2023/07/08 01:22:42;;;;;;;10.37;6.63;;;23.80;58.70;;;;;;5023751;28;20475;-70
2023/07/08 01:25:10;;;;;;;10.10;7.60;;;23.80;58.80;;;;;;5042358;28;21010;-71
2023/07/08 01:27:39;;;;;;;6.93;6.20;;;23.80;58.80;;;;;;5027976;28;20562;-71
2023/07/08 01:30:06;;;;;;;6.90;6.20;;;23.80;59.00;;;;;;5034224;28;20972;-70
2023/07/08 01:32:36;;;;;;;10.37;7.67;;;23.70;59.10;;;;;;5037991;28;20506;-71
2023/07/08 01:35:03;;;;;;;9.43;5.90;;;23.60;59.50;;;;;;5027355;28;20898;-71
2023/07/08 01:37:39;;;;;;;9.17;7.20;;;23.50;59.80;;;;;;5038380;28;20526;-71
2023/07/08 01:40:34;;;;;;;9.00;6.73;;;23.50;60.00;;;;;;5024047;28;20463;-70
2023/07/08 01:43:01;;;;;;;9.30;6.57;;;23.40;59.90;;;;;;5058021;28;20973;-70
2023/07/08 01:45:31;;;;;;;8.77;6.30;;;23.40;59.90;;;;;;5037234;28;20455;-70
2023/07/08 01:48:01;;;;;;;9.03;6.87;;;23.40;59.90;;;;;;5038267;28;20467;-71
2023/07/08 01:50:28;;;;;;;13.20;9.90;;;23.40;59.80;;;;;;5035597;28;20476;-71
2023/07/08 01:52:58;;;;;;;8.47;5.90;;;23.40;59.70;;;;;;5047975;28;20470;-71
2023/07/08 01:55:25;;;;;;;6.77;5.83;;;23.40;59.50;;;;;;5036077;28;20906;-70
2023/07/08 01:57:52;;;;;;;11.27;6.83;;;23.50;59.30;;;;;;5042197;28;20823;-71
2023/07/08 02:00:19;;;;;;;6.87;6.17;;;23.40;59.40;;;;;;5040523;28;20470;-70
2023/07/08 02:02:44;;;;;;;8.23;6.27;;;23.40;59.40;;;;;;5029735;28;20471;-70
2023/07/08 02:05:10;;;;;;;8.10;6.77;;;23.40;59.40;;;;;;5038936;28;20539;-70
2023/07/08 02:07:36;;;;;;;10.63;6.33;;;23.40;59.40;;;;;;5041285;28;20594;-70
2023/07/08 02:10:01;;;;;;;12.33;7.17;;;23.30;59.40;;;;;;5036100;28;20682;-70
2023/07/08 02:12:27;;;;;;;9.00;6.50;;;23.20;59.50;;;;;;5035419;28;20765;-70
2023/07/08 02:14:53;;;;;;;14.70;7.03;;;23.20;59.70;;;;;;5039206;28;20219;-69
2023/07/08 02:17:18;;;;;;;8.03;6.50;;;23.00;59.60;;;;;;5038023;28;20221;-70
2023/07/08 02:19:44;;;;;;;7.87;6.27;;;23.00;59.70;;;;;;5032064;28;20232;-71
2023/07/08 02:22:10;;;;;;;9.37;6.33;;;22.90;59.40;;;;;;5026760;28;20215;-69
2023/07/08 02:24:36;;;;;;;14.70;6.23;;;23.00;59.40;;;;;;5038304;28;20895;-71
2023/07/08 02:27:01;;;;;;;9.93;6.73;;;23.00;59.20;;;;;;5037788;28;20220;-70
2023/07/08 02:29:27;;;;;;;8.67;6.17;;;23.00;59.20;;;;;;5028704;28;20222;-70
2023/07/08 02:31:54;;;;;;;6.90;5.87;;;23.10;59.20;;;;;;5026382;28;20222;-70
2023/07/08 02:34:20;;;;;;;6.50;5.80;;;23.10;59.10;;;;;;5035151;28;20459;-69
2023/07/08 02:36:46;;;;;;;7.90;6.10;;;23.10;59.20;;;;;;5025298;28;20559;-71
2023/07/08 02:39:12;;;;;;;10.00;7.07;;;23.10;59.20;;;;;;5021572;28;20231;-70
2023/07/08 02:41:39;;;;;;;6.63;5.67;;;23.20;59.20;;;;;;5021940;28;20455;-70
2023/07/08 02:44:05;;;;;;;8.70;6.10;;;23.10;59.20;;;;;;5022738;28;20455;-70
2023/07/08 02:46:31;;;;;;;7.20;6.13;;;23.10;59.10;;;;;;5036477;28;20593;-70
2023/07/08 02:48:56;;;;;;;9.30;5.97;;;23.10;59.20;;;;;;5025049;28;20232;-72
2023/07/08 02:51:22;;;;;;;8.53;6.30;;;23.10;59.30;;;;;;5022374;28;20288;-72
2023/07/08 02:53:50;;;;;;;6.60;5.53;;;23.00;59.40;;;;;;5025677;28;20667;-72
2023/07/08 02:56:15;;;;;;;8.20;6.73;;;23.00;59.60;;;;;;5029683;28;20244;-71
2023/07/08 02:58:41;;;;;;;8.73;5.67;;;22.90;59.60;;;;;;5023876;28;20497;-71
2023/07/08 03:01:09;;;;;;;9.63;7.43;;;22.90;59.80;;;;;;5034346;28;20239;-70
2023/07/08 03:03:35;;;;;;;10.40;6.87;;;22.80;59.80;;;;;;5040738;28;20718;-70
2023/07/08 03:06:08;;;;;;;11.17;6.67;;;22.80;60.00;;;;;;5034779;28;20490;-71
2023/07/08 03:08:33;;;;;;;7.97;6.63;;;22.80;60.20;;;;;;5022330;28;20209;-70
2023/07/08 03:11:01;;;;;;;6.97;5.23;;;22.80;60.20;;;;;;5016232;28;20784;-71
2023/07/08 03:13:27;;;;;;;10.53;7.33;;;22.70;60.50;;;;;;5044070;28;20216;-71
2023/07/08 03:15:55;;;;;;;8.83;6.37;;;22.70;60.60;;;;;;5030503;28;20451;-71
2023/07/08 03:18:23;;;;;;;10.90;6.97;;;22.60;60.50;;;;;;5043843;28;20457;-71
2023/07/08 03:20:52;;;;;;;6.17;5.20;;;22.60;60.40;;;;;;5054614;28;20553;-71
2023/07/08 03:23:17;;;;;;;8.70;6.30;;;22.50;60.80;;;;;;5047563;28;20521;-70
2023/07/08 03:25:43;;;;;;;7.43;6.40;;;22.50;61.00;;;;;;5035292;28;20538;-72
2023/07/08 03:28:14;;;;;;;8.90;5.90;;;22.40;60.90;;;;;;5043807;28;20212;-72
2023/07/08 03:30:42;;;;;;;7.37;5.97;;;22.40;61.10;;;;;;5044967;28;20455;-72
2023/07/08 03:33:08;;;;;;;6.77;5.80;;;22.40;61.10;;;;;;5047159;28;20457;-70
2023/07/08 03:35:34;;;;;;;7.50;6.27;;;22.40;61.20;;;;;;5046223;28;20456;-71
2023/07/08 03:38:00;;;;;;;10.50;5.90;;;22.40;61.20;;;;;;5031682;28;20449;-73
2023/07/08 03:40:26;;;;;;;9.90;5.87;;;22.40;61.60;;;;;;5046343;28;20231;-70
2023/07/08 03:42:51;;;;;;;7.07;5.80;;;22.40;61.10;;;;;;5049453;28;20465;-70
2023/07/08 03:45:17;;;;;;;7.67;6.40;;;22.20;61.90;;;;;;5042302;28;20226;-69
2023/07/08 03:47:43;;;;;;;6.90;5.77;;;22.20;61.80;;;;;;5039923;28;20212;-71
2023/07/08 03:50:19;;;;;;;6.90;5.60;;;22.30;61.70;;;;;;5027471;28;20546;-70
2023/07/08 03:52:46;;;;;;;7.70;6.20;;;22.10;61.70;;;;;;5041129;28;20484;-71
2023/07/08 03:55:13;;;;;;;15.43;6.80;;;22.10;61.80;;;;;;5045013;28;20454;-71
2023/07/08 03:57:39;;;;;;;9.10;6.47;;;22.20;61.80;;;;;;5044695;28;20466;-70
2023/07/08 04:00:09;;;;;;;7.83;5.93;;;22.20;61.60;;;;;;5029567;28;20459;-71
2023/07/08 04:02:43;;;;;;;8.67;5.87;;;22.30;61.70;;;;;;5049790;28;20221;-71
2023/07/08 04:05:16;;;;;;;11.53;6.70;;;22.20;61.70;;;;;;5041280;28;20463;-72
2023/07/08 04:07:42;;;;;;;6.00;5.20;;;22.10;62.00;;;;;;5049093;28;20467;-71
2023/07/08 04:10:09;;;;;;;7.93;6.00;;;22.10;62.00;;;;;;5047018;28;20507;-72
2023/07/08 04:12:35;;;;;;;8.50;5.57;;;22.20;62.40;;;;;;5029204;28;20989;-71
2023/07/08 04:15:02;;;;;;;7.17;6.20;;;22.20;62.30;;;;;;5043368;28;20450;-70
2023/07/08 04:17:28;;;;;;;6.93;5.70;;;22.20;62.10;;;;;;5048391;28;20501;-71
2023/07/08 04:19:56;;;;;;;6.40;4.90;;;22.20;61.90;;;;;;5039412;28;20564;-70
2023/07/08 04:22:23;;;;;;;8.53;6.00;;;22.20;62.00;;;;;;5042656;28;20771;-70
2023/07/08 04:24:49;;;;;;;15.50;6.10;;;22.20;61.90;;;;;;5042566;28;20568;-71
2023/07/08 04:27:17;;;;;;;9.80;5.97;;;22.30;62.00;;;;;;5029812;28;21003;-72
2023/07/08 04:29:44;;;;;;;5.80;5.03;;;22.30;62.20;;;;;;5023453;28;20216;-72
2023/07/08 04:32:10;;;;;;;7.90;5.70;;;22.10;63.00;;;;;;5033300;28;21036;-71
2023/07/08 04:34:35;;;;;;;10.57;6.17;;;22.00;63.20;;;;;;5029106;28;20526;-71
2023/07/08 04:37:01;;;;;;;6.77;5.10;;;21.90;63.30;;;;;;5047960;28;20362;-69
2023/07/08 04:39:27;;;;;;;10.90;5.77;;;22.00;63.40;;;;;;5034685;28;20315;-71
2023/07/08 04:41:53;;;;;;;9.33;5.73;;;22.10;63.40;;;;;;5046226;28;20227;-71
2023/07/08 04:44:19;;;;;;;8.53;5.70;;;22.10;63.60;;;;;;5040001;28;20240;-71
2023/07/08 04:47:13;;;;;;;5.73;5.13;;;22.00;63.40;;;;;;5029497;28;20212;-71
2023/07/08 04:49:43;;;;;;;5.90;5.30;;;22.00;63.70;;;;;;5034278;28;20487;-71
2023/07/08 04:52:09;;;;;;;7.40;5.27;;;22.00;63.90;;;;;;5035602;28;20458;-71
2023/07/08 04:54:34;;;;;;;6.27;5.20;;;22.10;63.80;;;;;;5027153;28;20447;-71
2023/07/08 04:57:00;;;;;;;6.03;5.03;;;22.10;63.60;;;;;;5037514;28;20223;-70
2023/07/08 04:59:26;;;;;;;6.83;4.83;;;22.10;63.30;;;;;;5039415;28;20736;-72
2023/07/08 05:01:52;;;;;;;7.33;5.17;;;22.10;62.80;;;;;;5040986;28;20340;-71
2023/07/08 05:04:20;;;;;;;6.00;4.80;;;22.10;62.50;;;;;;5041327;28;20226;-70
2023/07/08 05:06:46;;;;;;;7.00;5.40;;;22.20;62.40;;;;;;5022439;28;20459;-71
2023/07/08 05:09:12;;;;;;;8.83;5.93;;;22.20;62.30;;;;;;4999269;28;1047393;-71
2023/07/08 05:11:38;;;;;;;5.77;4.90;;;22.20;62.50;;;;;;5032738;28;20452;-71
2023/07/08 05:14:05;;;;;;;6.93;6.00;;;22.20;62.80;;;;;;5043176;28;20214;-71
2023/07/08 05:16:33;;;;;;;6.30;5.33;;;22.20;63.40;;;;;;5036742;28;20455;-71
2023/07/08 05:18:58;;;;;;;7.00;5.30;;;22.20;64.20;;;;;;5047476;28;20454;-70
2023/07/08 05:21:25;;;;;;;16.53;5.53;;;22.20;64.80;;;;;;5046672;28;20466;-70
2023/07/08 05:23:51;;;;;;;6.30;5.40;;;22.20;65.90;;;;;;5041378;28;20213;-71
2023/07/08 05:26:17;;;;;;;7.00;5.67;;;22.20;66.70;;;;;;5046987;28;20451;-71
2023/07/08 05:28:42;;;;;;;12.10;6.20;;;22.20;68.70;;;;;;5045935;28;20223;-71
2023/07/08 05:31:08;;;;;;;10.80;5.67;;;22.20;68.80;;;;;;5027614;28;20270;-70
2023/07/08 05:33:34;;;;;;;10.27;6.47;;;22.20;69.20;;;;;;5031715;28;20262;-71
2023/07/08 05:36:00;;;;;;;11.17;5.37;;;22.10;74.70;;;;;;5033630;28;20219;-69
2023/07/08 05:38:26;;;;;;;7.43;5.10;;;21.90;74.40;;;;;;5042332;28;20841;-71
2023/07/08 05:40:57;;;;;;;6.67;6.07;;;21.90;78.30;;;;;;5045182;28;20475;-71
2023/07/08 05:43:23;;;;;;;9.97;5.60;;;21.80;78.50;;;;;;5049188;28;20489;-70
2023/07/08 05:45:49;;;;;;;7.87;5.93;;;22.00;76.00;;;;;;5023833;28;20499;-70
2023/07/08 05:48:15;;;;;;;6.47;5.27;;;21.90;78.90;;;;;;5046621;28;20330;-70
2023/07/08 05:50:40;;;;;;;7.53;5.33;;;22.00;79.30;;;;;;5020500;28;20476;-70
2023/07/08 05:53:10;;;;;;;10.60;7.10;;;22.00;79.90;;;;;;5027178;28;20225;-70
2023/07/08 05:55:35;;;;;;;7.90;5.47;;;21.90;80.90;;;;;;5046327;28;20229;-70
2023/07/08 05:58:01;;;;;;;10.07;5.90;;;22.00;80.50;;;;;;5047739;28;20454;-71
2023/07/08 06:00:27;;;;;;;6.13;5.53;;;22.00;77.80;;;;;;5043553;28;20231;-70
2023/07/08 06:02:52;;;;;;;6.40;5.50;;;22.10;79.50;;;;;;5045312;28;20565;-70
2023/07/08 06:05:18;;;;;;;6.43;5.53;;;22.10;80.20;;;;;;5035689;28;20223;-69
2023/07/08 06:07:44;;;;;;;7.43;5.53;;;22.10;79.20;;;;;;5042618;28;20212;-70
2023/07/08 06:10:10;;;;;;;7.07;5.67;;;22.10;79.50;;;;;;5043330;28;20224;-70
2023/07/08 06:12:35;;;;;;;6.60;5.63;;;22.10;80.10;;;;;;5031889;28;20217;-69
2023/07/08 06:15:01;;;;;;;5.60;4.97;;;22.20;80.30;;;;;;5034946;28;20241;-70
2023/07/08 06:17:27;;;;;;;5.20;4.70;;;22.20;80.00;;;;;;5043150;28;20252;-70
2023/07/08 06:19:52;;;;;;;7.53;4.90;;;22.20;79.20;;;;;;5038981;28;20238;-70
2023/07/08 06:22:18;;;;;;;7.27;5.70;;;22.20;80.00;;;;;;5062702;28;20234;-71
2023/07/08 06:24:44;;;;;;;5.70;5.20;;;22.10;81.70;;;;;;5038791;28;20235;-71
2023/07/08 06:27:10;;;;;;;14.93;6.87;;;22.10;81.40;;;;;;5048304;28;20299;-71
2023/07/08 06:29:35;;;;;;;6.13;5.47;;;22.10;81.00;;;;;;5042783;28;20703;-70
2023/07/08 06:32:02;;;;;;;5.87;4.73;;;22.00;82.10;;;;;;5024827;28;20295;-70
2023/07/08 06:34:28;;;;;;;5.70;5.10;;;22.10;81.70;;;;;;5041116;28;20228;-70
2023/07/08 06:36:53;;;;;;;7.07;5.40;;;22.20;81.20;;;;;;5034194;28;20533;-71
2023/07/08 06:39:19;;;;;;;6.30;4.80;;;22.20;80.50;;;;;;5035378;28;20610;-71
2023/07/08 06:41:45;;;;;;;5.77;5.17;;;22.20;80.70;;;;;;5038068;28;20215;-71
2023/07/08 06:44:11;;;;;;;5.80;4.70;;;22.20;80.60;;;;;;5044729;28;21243;-71
2023/07/08 06:46:37;;;;;;;5.87;5.00;;;22.20;80.00;;;;;;5043304;28;20555;-71
2023/07/08 06:49:03;;;;;;;5.90;5.20;;;22.20;79.80;;;;;;5044303;28;20226;-70
2023/07/08 06:51:29;;;;;;;6.20;5.30;;;22.30;79.70;;;;;;5027110;28;20216;-71
2023/07/08 06:53:54;;;;;;;6.60;4.77;;;22.30;79.90;;;;;;5033707;28;20579;-70
2023/07/08 06:56:20;;;;;;;6.07;5.47;;;22.30;80.60;;;;;;5034820;28;20757;-70
2023/07/08 06:58:46;;;;;;;6.10;5.13;;;22.30;81.70;;;;;;5033725;28;20690;-70
2023/07/08 07:01:12;;;;;;;7.93;5.40;;;22.40;81.80;;;;;;5037214;28;20266;-71
2023/07/08 07:03:38;;;;;;;6.60;5.63;;;22.40;82.40;;;;;;5042078;28;20209;-69
2023/07/08 07:06:03;;;;;;;5.37;4.87;;;22.40;81.10;;;;;;5039694;28;20250;-70
2023/07/08 07:08:29;;;;;;;8.60;4.93;;;22.50;79.20;;;;;;5042878;28;20231;-70
2023/07/08 07:10:55;;;;;;;5.87;4.73;;;22.50;79.80;;;;;;5036919;28;20227;-71
2023/07/08 07:13:20;;;;;;;6.83;5.80;;;22.60;80.60;;;;;;5038897;28;20302;-71
2023/07/08 07:15:48;;;;;;;5.57;4.73;;;22.60;80.30;;;;;;5045961;28;20224;-71
2023/07/08 07:18:14;;;;;;;6.67;5.53;;;22.70;80.70;;;;;;5037755;28;20667;-71
2023/07/08 07:20:50;;;;;;;7.50;5.50;;;22.80;80.50;;;;;;5032123;28;20506;-70
2023/07/08 07:23:17;;;;;;;5.00;4.30;;;22.90;80.00;;;;;;5038911;28;20216;-70
2023/07/08 07:25:44;;;;;;;9.70;4.53;;;22.90;79.60;;;;;;5045586;28;20458;-70
2023/07/08 07:28:10;;;;;;;6.70;5.07;;;23.00;79.20;;;;;;5047511;28;20463;-70
2023/07/08 07:30:35;;;;;;;5.33;4.83;;;23.10;77.20;;;;;;5037033;28;20510;-70
2023/07/08 07:33:01;;;;;;;8.60;5.57;;;23.10;77.80;;;;;;5028622;28;20246;-71
2023/07/08 07:35:27;;;;;;;5.47;4.93;;;23.20;77.50;;;;;;5036998;28;20256;-71
2023/07/08 07:37:53;;;;;;;6.80;4.90;;;23.30;76.60;;;;;;5038792;28;20528;-71
2023/07/08 07:40:19;;;;;;;5.53;4.60;;;23.30;75.70;;;;;;5034632;28;20319;-70
2023/07/08 07:42:46;;;;;;;5.90;5.00;;;23.30;75.60;;;;;;5022709;28;20249;-69
2023/07/08 07:45:13;;;;;;;5.97;4.90;;;23.40;75.90;;;;;;5040988;28;20715;-70
2023/07/08 07:47:39;;;;;;;5.60;5.00;;;23.40;76.00;;;;;;5026916;28;20543;-70
2023/07/08 07:50:07;;;;;;;6.20;4.60;;;23.50;76.00;;;;;;5032496;28;20582;-71
2023/07/08 07:52:33;;;;;;;7.07;4.87;;;23.50;76.50;;;;;;5041869;28;20966;-68
2023/07/08 07:54:59;;;;;;;6.97;5.10;;;23.70;76.40;;;;;;5040279;28;20541;-69
2023/07/08 07:57:25;;;;;;;5.10;4.60;;;23.80;76.10;;;;;;5026518;28;20998;-70
2023/07/08 07:59:51;;;;;;;6.10;5.50;;;24.00;75.60;;;;;;5042194;28;20209;-71
2023/07/08 08:02:17;;;;;;;6.83;5.63;;;24.20;74.20;;;;;;5040888;28;20212;-70
2023/07/08 08:04:43;;;;;;;7.80;5.70;;;24.30;73.30;;;;;;5037118;28;20220;-72
2023/07/08 08:07:11;;;;;;;5.30;4.80;;;24.30;72.90;;;;;;5025912;28;20451;-73
2023/07/08 08:09:37;;;;;;;7.13;5.40;;;24.30;71.70;;;;;;5029550;28;20230;-71
2023/07/08 08:12:04;;;;;;;6.13;5.23;;;24.40;71.10;;;;;;5015174;28;20464;-71
2023/07/08 08:14:30;;;;;;;9.37;4.73;;;24.40;70.60;;;;;;5037514;28;20224;-71
2023/07/08 08:16:56;;;;;;;5.23;4.73;;;24.50;69.90;;;;;;5037735;28;20474;-72
2023/07/08 08:19:22;;;;;;;6.77;4.80;;;24.50;69.40;;;;;;5041923;28;20248;-71
2023/07/08 08:21:48;;;;;;;5.77;4.93;;;24.50;69.80;;;;;;5042393;28;20208;-71
2023/07/08 08:24:14;;;;;;;6.00;5.00;;;24.60;70.10;;;;;;5044423;28;20457;-70
2023/07/08 08:26:42;;;;;;;9.00;4.87;;;24.70;70.40;;;;;;5044515;28;20219;-73
2023/07/08 08:29:09;;;;;;;7.40;5.53;;;24.90;70.00;;;;;;5056800;28;20223;-71
2023/07/08 08:31:35;;;;;;;7.07;5.70;;;25.00;70.10;;;;;;5037442;28;20462;-71
2023/07/08 08:34:00;;;;;;;7.47;5.03;;;25.00;69.90;;;;;;5038713;28;20223;-71
2023/07/08 08:36:26;;;;;;;7.07;5.73;;;25.20;68.70;;;;;;5039352;28;20212;-69
2023/07/08 08:38:51;;;;;;;12.03;5.67;;;25.30;68.60;;;;;;5047393;28;20555;-72
2023/07/08 08:41:20;;;;;;;7.90;5.27;;;25.40;68.80;;;;;;5040496;28;20705;-73
2023/07/08 08:43:48;;;;;;;6.30;5.20;;;25.50;67.80;;;;;;5040831;28;20204;-70
2023/07/08 08:46:52;;;;;;;8.33;5.40;;;25.60;66.70;;;;;;5035853;28;20443;-72
2023/07/08 08:49:20;;;;;;;7.50;4.93;;;25.80;65.70;;;;;;4988856;28;20456;-71
2023/07/08 08:51:48;;;;;;;7.73;5.57;;;25.90;64.40;;;;;;5040908;28;20490;-72
2023/07/08 08:54:14;;;;;;;6.90;5.43;;;26.00;63.80;;;;;;5045270;28;20971;-71
2023/07/08 08:57:05;;;;;;;5.37;4.87;;;26.00;63.50;;;;;;5028787;28;20478;-71
2023/07/08 08:59:43;;;;;;;8.83;5.87;;;26.00;64.00;;;;;;5030186;28;20222;-71
2023/07/08 09:02:39;;;;;;;6.80;5.30;;;26.10;64.40;;;;;;5041534;28;20451;-68
2023/07/08 09:05:08;;;;;;;8.03;6.83;;;26.20;65.00;;;;;;5035626;28;20439;-71
2023/07/08 09:08:05;;;;;;;6.37;4.90;;;26.30;65.00;;;;;;5031436;28;21013;-71
2023/07/08 09:10:48;;;;;;;6.07;5.20;;;26.50;65.00;;;;;;5028025;28;20459;-70
2023/07/08 09:13:37;;;;;;;7.17;5.57;;;26.80;65.40;;;;;;5036714;28;20448;-72
2023/07/08 09:16:25;;;;;;;6.30;5.70;;;27.00;64.70;;;;;;5035664;28;20501;-72
2023/07/08 09:19:05;;;;;;;9.70;6.50;;;27.20;64.20;;;;;;5023460;28;21043;-71
2023/07/08 09:22:00;;;;;;;8.97;5.73;;;27.60;63.40;;;;;;5037562;28;20447;-71
2023/07/08 09:24:41;;;;;;;7.50;5.60;;;27.50;63.80;;;;;;5064893;28;20443;-72
2023/07/08 09:27:07;;;;;;;6.13;5.27;;;27.40;64.70;;;;;;5051619;28;20216;-72
2023/07/08 09:29:33;;;;;;;6.90;5.65;;;27.50;64.60;;;;;;5041543;28;20450;-71
2023/07/08 09:32:13;;;;;;;6.22;5.50;;;27.60;64.00;;;;;;5046070;28;20699;-71
2023/07/08 09:34:54;;;;;;;9.55;5.75;;;27.80;63.60;;;;;;5046660;28;20216;-71
2023/07/08 09:37:25;;;;;;;7.45;5.60;;;27.90;63.10;;;;;;5041536;28;20312;-71
2023/07/08 09:39:55;;;;;;;7.28;5.28;;;27.90;63.30;;;;;;5044116;28;20281;-72
2023/07/08 09:42:23;;;;;;;8.20;5.85;;;27.90;63.10;;;;;;5038093;28;20217;-71
2023/07/08 09:44:58;;;;;;;6.53;5.50;;;27.90;63.50;;;;;;5037597;28;20585;-72
2023/07/08 09:47:30;;;;;;;7.63;5.90;;;28.00;62.90;;;;;;5027822;28;20215;-71
2023/07/08 09:49:57;;;;;;;6.50;5.90;;;28.10;62.60;;;;;;5042640;28;20601;-71
2023/07/08 09:52:24;;;;;;;8.35;6.90;;;28.20;62.40;;;;;;5020859;28;20212;-71
2023/07/08 09:54:50;;;;;;;5.32;4.80;;;28.20;62.80;;;;;;5043372;28;20235;-72
2023/07/08 09:57:29;;;;;;;7.47;6.18;;;28.30;63.30;;;;;;5039795;28;20221;-72
2023/07/08 10:00:02;;;;;;;7.15;6.07;;;28.50;63.30;;;;;;5045602;28;20220;-72
2023/07/08 10:02:42;;;;;;;6.30;5.57;;;28.80;62.90;;;;;;5047181;28;20207;-72
2023/07/08 10:05:14;;;;;;;9.20;6.50;;;29.00;63.10;;;;;;5046351;28;20220;-71
2023/07/08 10:07:40;;;;;;;7.90;6.13;;;29.00;63.00;;;;;;5036172;28;20740;-71
2023/07/08 10:10:15;;;;;;;7.20;5.90;;;29.10;63.20;;;;;;5027689;28;20215;-73
2023/07/08 10:12:45;;;;;;;7.60;6.05;;;29.20;62.90;;;;;;5054463;28;20204;-71
2023/07/08 10:15:22;;;;;;;7.45;6.22;;;29.50;63.20;;;;;;5042749;28;20273;-73
2023/07/08 10:17:47;;;;;;;7.45;6.10;;;29.60;63.10;;;;;;5034698;28;20224;-72
2023/07/08 10:20:13;;;;;;;8.35;5.53;;;29.70;62.60;;;;;;5035370;28;20216;-71
2023/07/08 10:23:23;;;;;;;6.35;5.65;;;29.70;61.30;;;;;;5025111;28;20215;-72
2023/07/08 10:26:11;;;;;;;8.00;5.95;;;30.00;62.60;;;;;;5043833;28;20252;-72
2023/07/08 10:29:15;;;;;;;7.75;7.00;;;30.20;61.50;;;;;;5002100;28;20224;-71
2023/07/08 10:31:50;;;;;;;10.98;7.80;;;30.00;60.80;;;;;;5036735;28;20658;-71
2023/07/08 10:34:46;;;;;;;9.25;8.07;;;30.20;61.00;;;;;;5048421;28;20304;-70
2023/07/08 10:37:22;;;;;;;12.52;11.32;;;30.40;61.20;;;;;;5037884;28;20231;-71
2023/07/08 10:40:00;;;;;;;25.42;23.05;;;30.50;61.40;;;;;;5035064;28;20234;-71
2023/07/08 10:42:25;;;;;;;25.42;22.95;;;30.80;60.30;;;;;;5050126;28;20211;-72
2023/07/08 10:45:10;;;;;;;26.30;23.70;;;31.00;61.50;;;;;;5038751;28;20212;-72
2023/07/08 10:47:43;;;;;;;22.45;20.25;;;31.10;59.80;;;;;;5040124;28;20227;-71
2023/07/08 10:50:21;;;;;;;20.85;18.63;;;31.10;60.00;;;;;;5059888;28;20253;-71
2023/07/08 10:53:01;;;;;;;17.05;14.65;;;31.10;59.90;;;;;;5028738;28;20258;-70
2023/07/08 10:55:42;;;;;;;12.57;10.77;;;31.30;60.40;;;;;;5038383;28;20355;-71
2023/07/08 10:58:28;;;;;;;9.73;8.80;;;31.50;60.20;;;;;;5039602;28;20278;-71
2023/07/08 11:01:21;;;;;;;8.32;7.47;;;31.40;60.20;;;;;;5041638;28;20294;-71
2023/07/08 11:03:55;;;;;;;8.95;6.05;;;31.90;59.40;;;;;;5041731;28;20231;-71
2023/07/08 11:06:28;;;;;;;9.38;7.93;;;32.20;59.50;;;;;;5040637;28;20300;-71
2023/07/08 11:08:59;;;;;;;7.22;6.53;;;32.10;59.40;;;;;;5046846;28;20227;-71
2023/07/08 11:11:32;;;;;;;8.60;7.28;;;32.20;59.00;;;;;;5050937;28;20219;-70
2023/07/08 11:14:33;;;;;;;9.68;7.03;;;32.30;59.20;;;;;;5030110;28;20219;-71
2023/07/08 11:17:26;;;;;;;7.43;6.72;;;32.00;59.30;;;;;;5036293;28;20222;-71
2023/07/08 11:20:21;;;;;;;9.07;7.43;;;32.10;59.60;;;;;;5031332;28;20224;-72
2023/07/08 11:22:57;;;;;;;7.28;6.57;;;32.10;59.20;;;;;;5037266;28;20228;-72
2023/07/08 11:25:25;;;;;;;11.43;7.53;;;31.80;59.10;;;;;;5029114;28;20673;-72
2023/07/08 11:27:54;;;;;;;9.50;7.03;;;31.90;59.30;;;;;;5037391;28;20227;-71
2023/07/08 11:30:26;;;;;;;8.15;6.95;;;31.90;59.20;;;;;;5037942;28;20306;-72
2023/07/08 11:33:04;;;;;;;9.27;7.18;;;31.90;59.10;;;;;;5046329;28;20678;-71
2023/07/08 11:35:45;;;;;;;8.20;7.40;;;31.90;59.00;;;;;;5035937;28;20217;-70
2023/07/08 11:38:19;;;;;;;8.77;7.95;;;31.90;59.00;;;;;;5033263;28;20220;-71
2023/07/08 11:41:04;;;;;;;7.88;7.15;;;31.60;59.10;;;;;;5034483;28;20218;-71
2023/07/08 11:44:11;;;;;;;6.63;6.03;;;31.90;59.30;;;;;;5045616;28;20565;-72
2023/07/08 11:46:54;;;;;;;8.13;6.97;;;32.30;59.00;;;;;;4994070;28;20610;-72
2023/07/08 11:49:20;;;;;;;9.52;6.15;;;32.80;59.30;;;;;;4974642;28;20221;-72
2023/07/08 11:51:47;;;;;;;7.80;6.40;;;33.00;59.10;;;;;;5021964;28;20334;-72
2023/07/08 11:54:29;;;;;;;8.55;7.65;;;33.20;59.00;;;;;;5036136;28;20212;-72
2023/07/08 11:56:59;;;;;;;9.18;7.03;;;33.20;59.20;;;;;;5025717;28;20559;-71
2023/07/08 11:59:28;;;;;;;8.30;6.55;;;33.10;58.30;;;;;;5048191;28;20227;-72
2023/07/08 12:02:09;;;;;;;8.98;6.95;;;33.20;58.40;;;;;;5032000;28;20223;-72
2023/07/08 12:04:51;;;;;;;8.60;6.00;;;33.40;58.40;;;;;;5040679;28;20270;-71
2023/07/08 12:07:20;;;;;;;7.50;6.80;;;33.60;58.20;;;;;;5034802;28;20223;-74
2023/07/08 12:09:59;;;;;;;9.45;7.75;;;33.70;58.30;;;;;;5044019;28;20217;-72
2023/07/08 12:12:30;;;;;;;10.80;9.20;;;33.60;58.00;;;;;;5055031;28;20241;-72
2023/07/08 12:15:12;;;;;;;7.55;6.93;;;33.50;58.10;;;;;;5043845;28;20216;-72
2023/07/08 12:17:39;;;;;;;7.10;6.40;;;33.70;58.10;;;;;;5039060;28;20224;-72
2023/07/08 12:20:19;;;;;;;7.25;6.60;;;34.00;58.20;;;;;;5055946;28;20236;-71
2023/07/08 12:22:45;;;;;;;8.30;6.65;;;34.10;57.40;;;;;;5046461;28;20317;-72
2023/07/08 12:25:16;;;;;;;8.20;7.38;;;34.20;57.40;;;;;;5042237;28;20247;-72
2023/07/08 12:27:42;;;;;;;8.27;7.25;;;34.10;57.40;;;;;;5049800;28;20208;-72
2023/07/08 12:30:11;;;;;;;7.47;6.78;;;34.20;57.30;;;;;;5040720;28;20721;-72
2023/07/08 12:32:37;;;;;;;7.88;6.97;;;34.20;57.50;;;;;;5037891;28;20243;-72
2023/07/08 12:35:05;;;;;;;8.65;6.50;;;34.20;56.90;;;;;;5040833;28;20357;-72
2023/07/08 12:37:31;;;;;;;8.20;7.20;;;34.20;56.80;;;;;;5050192;28;20253;-73
2023/07/08 12:40:04;;;;;;;7.22;6.53;;;34.20;56.90;;;;;;5025996;28;20246;-72
2023/07/08 12:42:31;;;;;;;7.72;6.95;;;34.40;57.40;;;;;;5045449;28;20347;-72
2023/07/08 12:44:56;;;;;;;6.97;6.30;;;34.40;57.20;;;;;;5025586;28;20591;-72
2023/07/08 12:47:22;;;;;;;7.43;6.47;;;34.50;57.40;;;;;;5043126;28;20217;-72
2023/07/08 12:49:48;;;;;;;8.05;6.28;;;34.50;57.10;;;;;;5024607;28;20223;-73
2023/07/08 12:52:22;;;;;;;7.93;7.07;;;34.70;57.00;;;;;;5047006;28;20265;-70
2023/07/08 12:54:48;;;;;;;7.68;6.82;;;34.60;56.80;;;;;;5043992;28;20247;-72
2023/07/08 12:57:16;;;;;;;8.20;6.90;;;34.60;56.30;;;;;;5040905;28;20689;-71
2023/07/08 12:59:42;;;;;;;8.32;7.30;;;34.90;56.10;;;;;;5042170;28;20219;-72